Time;durP1;ratioP1;P1;durP2;ratioP2;P2;SDS_P1;SDS_P2;PMS_P1;PMS_P2;Temp;Humidity;BMP_temperature;BMP_pressure;BME280_temperature;BME280_humidity;BME280_pressure;Samples;Min_cycle;Max_cycle;Signal;HPM_P1;HPM_P2
2024/02/21 00:00:48;;;;;;;3.42;2.28;;;;;;;;;;5041696;28;20214;-68
2024/02/21 00:03:13;;;;;;;3.30;1.83;;;6.90;99.90;;;;;;5041878;28;20036;-66
2024/02/21 00:05:40;;;;;;;4.50;1.90;;;6.80;99.90;;;;;;5041772;28;20032;-65
2024/02/21 00:08:07;;;;;;;4.97;2.08;;;6.80;99.90;;;;;;5041591;28;20021;-64
2024/02/21 00:10:35;;;;;;;6.47;2.05;;;6.80;99.90;;;;;;5041415;28;20033;-68
2024/02/21 00:13:03;;;;;;;4.45;2.10;;;6.70;99.90;;;;;;5040594;28;20233;-65
2024/02/21 00:15:29;;;;;;;3.15;1.70;;;;;;;;;;5041702;28;20033;-65
2024/02/21 00:17:55;;;;;;;2.58;1.77;;;6.70;99.90;;;;;;5041070;28;20033;-67
2024/02/21 00:20:21;;;;;;;3.83;2.00;;;6.60;99.90;;;;;;5041182;28;20183;-67
2024/02/21 00:22:46;;;;;;;2.90;1.63;;;6.70;99.90;;;;;;5040834;28;20021;-70
2024/02/21 00:25:12;;;;;;;3.95;2.15;;;7.00;99.90;;;;;;5040626;28;20113;-69
2024/02/21 00:27:39;;;;;;;3.20;1.67;;;6.60;99.90;;;;;;5040674;28;20040;-69
2024/02/21 00:30:06;;;;;;;2.55;1.90;;;6.70;99.90;;;;;;5040346;28;20143;-69
2024/02/21 00:32:34;;;;;;;2.65;1.50;;;6.80;99.90;;;;;;5040301;28;20033;-69
2024/02/21 00:35:01;;;;;;;2.93;1.80;;;6.80;99.90;;;;;;5040220;28;20049;-68
2024/02/21 00:37:26;;;;;;;3.33;1.65;;;6.70;99.90;;;;;;5040199;28;20259;-70
2024/02/21 00:39:56;;;;;;;4.93;2.00;;;6.80;99.90;;;;;;5040350;28;20033;-70
2024/02/21 00:42:22;;;;;;;3.50;1.35;;;6.80;99.90;;;;;;5039764;28;20021;-72
2024/02/21 00:44:48;;;;;;;7.18;1.67;;;6.50;99.90;;;;;;5040131;28;20037;-70
2024/02/21 00:47:14;;;;;;;3.50;1.85;;;6.80;99.90;;;;;;5039860;28;20092;-69
2024/02/21 00:49:40;;;;;;;3.20;2.10;;;6.70;99.90;;;;;;5039908;28;20029;-70
2024/02/21 00:52:06;;;;;;;5.53;1.80;;;6.50;99.90;;;;;;5040018;28;20029;-70
2024/02/21 00:54:31;;;;;;;3.67;2.05;;;6.70;99.90;;;;;;5039931;28;20040;-69
2024/02/21 00:56:57;;;;;;;5.72;1.90;;;6.70;99.90;;;;;;5039989;28;20167;-68
2024/02/21 00:59:23;;;;;;;3.60;1.63;;;6.80;99.90;;;;;;5039996;28;20041;-70
2024/02/21 01:01:49;;;;;;;4.40;2.10;;;;;;;;;;5039833;28;20025;-70
2024/02/21 01:04:14;;;;;;;3.63;1.90;;;6.30;99.90;;;;;;5039638;28;20021;-69
2024/02/21 01:06:42;;;;;;;2.63;1.58;;;6.70;99.90;;;;;;5039749;28;20100;-70
2024/02/21 01:09:09;;;;;;;3.22;2.05;;;6.70;99.90;;;;;;5035375;28;20095;-70
2024/02/21 01:11:35;;;;;;;2.97;2.00;;;6.70;99.90;;;;;;5020063;28;20026;-68
2024/02/21 01:14:00;;;;;;;3.80;1.95;;;6.70;99.90;;;;;;5019822;28;20040;-67
2024/02/21 01:16:26;;;;;;;3.45;1.92;;;;;;;;;;5019867;28;20269;-69
2024/02/21 01:18:52;;;;;;;3.15;2.17;;;6.80;99.90;;;;;;5020117;28;20030;-68
2024/02/21 01:21:18;;;;;;;5.18;1.92;;;;;;;;;;5035117;28;20052;-68
2024/02/21 01:23:44;;;;;;;3.55;2.30;;;6.70;99.90;;;;;;5020217;28;20025;-68
2024/02/21 01:26:12;;;;;;;3.33;2.33;;;6.60;99.90;;;;;;5020197;28;20215;-66
2024/02/21 01:28:40;;;;;;;;;;;6.60;99.90;;;;;;5020229;28;20037;-65
2024/02/21 01:31:06;;;;;;;4.43;1.92;;;;;;;;;;5020094;28;19909;-65
2024/02/21 01:33:34;;;;;;;3.60;2.30;;;6.60;99.90;;;;;;5019636;28;20069;-65
2024/02/21 01:36:08;;;;;;;3.17;2.08;;;6.40;99.90;;;;;;5019952;28;20041;-67
2024/02/21 01:38:33;;;;;;;2.72;1.98;;;6.40;99.90;;;;;;5020500;28;20033;-68
2024/02/21 01:40:59;;;;;;;8.15;2.20;;;6.30;99.90;;;;;;5020465;28;20029;-67
2024/02/21 01:43:27;;;;;;;4.47;2.47;;;6.20;99.90;;;;;;5020747;28;20030;-67
2024/02/21 01:45:55;;;;;;;3.97;2.10;;;6.30;99.90;;;;;;5020650;28;20018;-66
2024/02/21 01:48:24;;;;;;;2.83;2.03;;;6.30;99.90;;;;;;5020349;28;20333;-68
2024/02/21 01:50:51;;;;;;;4.68;2.92;;;6.20;99.90;;;;;;5020423;28;20022;-67
2024/02/21 01:53:27;;;;;;;3.53;2.45;;;6.30;99.90;;;;;;5020769;28;20045;-66
2024/02/21 01:55:53;;;;;;;3.85;2.30;;;6.10;99.90;;;;;;5024067;28;20014;-65
2024/02/21 01:58:19;;;;;;;4.85;2.45;;;5.90;99.90;;;;;;5024708;28;20108;-65
2024/02/21 02:00:47;;;;;;;3.58;2.00;;;5.90;99.90;;;;;;5024735;28;20048;-65
2024/02/21 02:03:16;;;;;;;3.17;2.20;;;6.00;99.90;;;;;;5025163;28;20030;-68
2024/02/21 02:05:47;;;;;;;6.25;2.38;;;5.90;99.90;;;;;;5025417;28;20034;-69
2024/02/21 02:08:16;;;;;;;4.30;2.17;;;6.00;99.90;;;;;;5027252;28;20025;-68
2024/02/21 02:10:42;;;;;;;4.90;2.78;;;6.10;99.90;;;;;;5027437;28;20278;-69
2024/02/21 02:13:08;;;;;;;5.72;2.50;;;5.80;99.90;;;;;;5027771;28;20076;-69
2024/02/21 02:15:52;;;;;;;6.45;2.33;;;5.70;99.90;;;;;;5027254;28;20022;-71
2024/02/21 02:18:19;;;;;;;6.30;2.80;;;5.60;99.90;;;;;;5027213;28;20056;-68
2024/02/21 02:20:46;;;;;;;6.13;2.97;;;;;;;;;;5027653;28;20351;-68
2024/02/21 02:23:24;;;;;;;4.55;2.30;;;5.40;99.90;;;;;;5026034;28;20033;-70
2024/02/21 02:25:53;;;;;;;4.88;3.13;;;5.30;99.90;;;;;;5028062;28;20072;-69
2024/02/21 02:28:20;;;;;;;6.28;3.25;;;5.20;99.90;;;;;;5027392;28;20024;-66
2024/02/21 02:30:46;;;;;;;4.85;3.67;;;5.20;99.90;;;;;;5027523;28;20026;-67
2024/02/21 02:33:12;;;;;;;4.97;3.60;;;5.10;99.90;;;;;;5026560;28;20084;-66
2024/02/21 02:35:38;;;;;;;6.97;4.30;;;5.10;99.90;;;;;;5026912;28;20109;-67
2024/02/21 02:38:04;;;;;;;6.15;3.67;;;4.80;99.90;;;;;;5035890;28;20096;-67
2024/02/21 02:40:33;;;;;;;7.57;4.00;;;4.70;99.90;;;;;;5046726;28;20021;-68
2024/02/21 02:42:59;;;;;;;4.65;2.80;;;5.20;99.90;;;;;;5046279;28;20064;-68
2024/02/21 02:45:26;;;;;;;4.15;2.85;;;4.90;99.90;;;;;;5045285;28;20031;-66
2024/02/21 02:47:56;;;;;;;5.50;2.70;;;5.20;99.90;;;;;;5046316;28;20069;-66
2024/02/21 02:50:26;;;;;;;5.45;2.88;;;4.80;99.90;;;;;;5046295;28;20025;-66
2024/02/21 02:52:52;;;;;;;4.97;2.38;;;4.60;99.90;;;;;;5045631;28;20025;-67
2024/02/21 02:55:18;;;;;;;7.20;3.13;;;5.10;99.90;;;;;;5044395;28;20041;-68
2024/02/21 02:57:44;;;;;;;5.72;2.92;;;4.60;99.90;;;;;;5045851;28;20036;-67
2024/02/21 03:00:14;;;;;;;3.35;3.05;;;4.60;99.90;;;;;;5045471;28;20056;-67
2024/02/21 03:02:41;;;;;;;8.13;4.25;;;4.60;99.90;;;;;;5045083;28;20424;-66
2024/02/21 03:05:14;;;;;;;9.82;3.92;;;4.70;99.90;;;;;;5043142;28;20033;-66
2024/02/21 03:07:40;;;;;;;9.68;3.20;;;4.60;99.90;;;;;;5043861;28;20281;-68
2024/02/21 03:10:06;;;;;;;6.63;3.22;;;4.50;99.90;;;;;;5043769;28;20333;-67
2024/02/21 03:12:32;;;;;;;6.60;3.65;;;4.50;99.90;;;;;;5043528;28;20391;-67
2024/02/21 03:14:58;;;;;;;7.70;3.20;;;;;;;;;;5043291;28;20038;-66
2024/02/21 03:17:26;;;;;;;6.30;3.17;;;4.40;99.90;;;;;;5043631;28;20021;-67
2024/02/21 03:19:52;;;;;;;5.43;3.80;;;4.40;99.90;;;;;;5043216;28;20029;-67
2024/02/21 03:22:18;;;;;;;8.35;3.88;;;;;;;;;;5042796;28;20025;-72
2024/02/21 03:24:45;;;;;;;10.15;3.75;;;4.40;99.90;;;;;;5042632;28;20033;-65
2024/02/21 03:27:11;;;;;;;6.93;3.03;;;4.40;99.90;;;;;;5041030;28;20254;-66
2024/02/21 03:29:37;;;;;;;6.03;3.13;;;;;;;;;;5042390;28;20021;-66
2024/02/21 03:32:03;;;;;;;5.38;3.97;;;4.50;99.90;;;;;;5042473;28;20031;-65
2024/02/21 03:34:29;;;;;;;4.78;3.28;;;;;;;;;;5041424;28;20401;-64
2024/02/21 03:36:54;;;;;;;6.35;3.10;;;4.30;99.90;;;;;;5041955;28;20342;-66
2024/02/21 03:39:21;;;;;;;8.98;4.45;;;4.30;99.90;;;;;;5041713;28;20033;-66
2024/02/21 03:41:47;;;;;;;8.68;3.30;;;4.30;99.90;;;;;;5041653;28;20025;-65
2024/02/21 03:44:13;;;;;;;6.00;2.97;;;;;;;;;;5041858;28;20343;-67
2024/02/21 03:46:39;;;;;;;5.05;2.78;;;4.00;99.90;;;;;;5041640;28;20041;-65
2024/02/21 03:49:04;;;;;;;6.18;3.40;;;4.30;99.90;;;;;;5041589;28;20033;-65
2024/02/21 03:51:31;;;;;;;6.05;3.20;;;;;;;;;;5041375;28;20056;-64
2024/02/21 03:53:56;;;;;;;6.43;3.45;;;4.30;99.90;;;;;;5041679;28;20033;-65
2024/02/21 03:56:22;;;;;;;5.90;3.35;;;;;;;;;;5041259;28;20328;-66
2024/02/21 03:58:50;;;;;;;8.32;3.75;;;3.90;99.90;;;;;;5041374;28;20021;-67
2024/02/21 04:01:16;;;;;;;5.53;3.33;;;3.80;99.90;;;;;;5041367;28;20053;-68
2024/02/21 04:03:44;;;;;;;9.82;4.13;;;3.80;99.90;;;;;;5041376;28;20017;-65
2024/02/21 04:06:10;;;;;;;6.93;3.80;;;;;;;;;;5041097;28;20036;-66
2024/02/21 04:08:36;;;;;;;8.98;3.90;;;4.00;99.90;;;;;;5041237;28;20022;-67
2024/02/21 04:11:02;;;;;;;7.00;3.80;;;;;;;;;;5040117;28;20088;-67
2024/02/21 04:13:28;;;;;;;9.45;4.30;;;;;;;;;;5040943;28;20341;-66
2024/02/21 04:15:54;;;;;;;10.05;4.55;;;;;;;;;;5041093;28;20290;-69
2024/02/21 04:18:20;;;;;;;8.32;4.55;;;;;;;;;;5040407;28;20021;-67
2024/02/21 04:20:47;;;;;;;8.40;4.30;;;;;;;;;;5040862;28;20021;-66
2024/02/21 04:23:13;;;;;;;8.02;4.00;;;3.80;99.90;;;;;;5040688;28;20056;-67
2024/02/21 04:25:39;;;;;;;10.77;4.68;;;;;;;;;;5040848;28;20026;-66
2024/02/21 04:28:06;;;;;;;6.32;3.97;;;;;;;;;;5040598;28;20364;-67
2024/02/21 04:30:32;;;;;;;7.35;4.00;;;3.70;99.90;;;;;;5040684;28;20067;-67
2024/02/21 04:32:58;;;;;;;8.52;4.55;;;;;;;;;;5040388;28;20337;-66
2024/02/21 04:35:24;;;;;;;6.60;4.03;;;;;;;;;;5040527;28;20344;-67
2024/02/21 04:37:50;;;;;;;6.32;4.50;;;3.60;99.90;;;;;;5040548;28;20031;-69
2024/02/21 04:40:16;;;;;;;12.27;4.28;;;;;;;;;;5039136;28;20096;-66
2024/02/21 04:42:42;;;;;;;9.70;4.72;;;3.40;99.90;;;;;;5039173;28;20052;-67
2024/02/21 04:45:09;;;;;;;8.68;4.43;;;;;;;;;;5040106;28;20321;-68
2024/02/21 04:47:35;;;;;;;10.45;4.78;;;;;;;;;;5040277;28;20029;-67
2024/02/21 04:50:01;;;;;;;10.82;4.55;;;;;;;;;;5040342;28;20037;-67
2024/02/21 04:52:27;;;;;;;10.45;6.03;;;;;;;;;;5040846;28;20084;-67
2024/02/21 04:54:53;;;;;;;8.45;4.53;;;;;;;;;;5039960;28;20241;-66
2024/02/21 04:57:19;;;;;;;8.70;4.03;;;;;;;;;;5040090;28;20408;-66
2024/02/21 04:59:45;;;;;;;10.38;4.68;;;;;;;;;;5039883;28;20033;-68
2024/02/21 05:02:11;;;;;;;11.07;4.90;;;3.60;99.90;;;;;;5040126;28;20030;-68
2024/02/21 05:04:38;;;;;;;10.25;4.43;;;;;;;;;;5040163;28;20229;-68
2024/02/21 05:07:04;;;;;;;7.55;4.13;;;3.30;99.90;;;;;;5039765;28;20272;-68
2024/02/21 05:09:30;;;;;;;8.05;4.88;;;;;;;;;;5039900;28;20037;-67
2024/02/21 05:11:56;;;;;;;8.45;4.72;;;3.60;99.90;;;;;;5039741;28;20029;-65
2024/02/21 05:14:22;;;;;;;8.05;4.45;;;;;;;;;;5030354;28;20156;-69
2024/02/21 05:16:48;;;;;;;7.00;4.28;;;;;;;;;;5036565;28;20048;-69
2024/02/21 05:19:14;;;;;;;8.23;4.82;;;;;;;;;;5024871;28;20097;-66
2024/02/21 05:21:40;;;;;;;8.15;4.78;;;;;;;;;;5039587;28;20020;-65
2024/02/21 05:24:05;;;;;;;7.35;4.28;;;3.00;99.90;;;;;;5031360;28;20026;-66
2024/02/21 05:26:31;;;;;;;7.10;4.68;;;2.90;99.90;;;;;;5019480;28;20026;-65
2024/02/21 05:28:59;;;;;;;9.27;4.97;;;;;;;;;;5021576;28;20029;-66
2024/02/21 05:31:25;;;;;;;7.68;5.35;;;3.20;99.90;;;;;;5036426;28;20025;-64
2024/02/21 05:33:51;;;;;;;10.68;5.10;;;;;;;;;;5021594;28;20111;-67
2024/02/21 05:36:17;;;;;;;11.57;4.72;;;3.10;99.90;;;;;;5019989;28;20022;-65
2024/02/21 05:38:43;;;;;;;12.23;5.20;;;;;;;;;;5019929;28;20032;-66
2024/02/21 05:41:09;;;;;;;6.80;4.45;;;;;;;;;;5019708;28;20329;-67
2024/02/21 05:43:35;;;;;;;11.25;5.20;;;;;;;;;;5019669;28;20032;-67
2024/02/21 05:46:01;;;;;;;8.43;4.50;;;;;;;;;;5019828;28;20018;-68
2024/02/21 05:48:27;;;;;;;6.38;4.50;;;;;;;;;;5019661;28;20088;-68
2024/02/21 05:50:53;;;;;;;12.10;5.25;;;;;;;;;;5019575;28;20333;-68
2024/02/21 05:53:19;;;;;;;7.78;4.65;;;;;;;;;;5019598;28;20095;-69
2024/02/21 05:55:44;;;;;;;7.78;4.88;;;3.20;99.90;;;;;;5033495;28;20126;-68
2024/02/21 05:58:13;;;;;;;9.82;4.88;;;3.10;99.90;;;;;;5039401;28;20033;-69
2024/02/21 06:00:39;;;;;;;8.82;5.32;;;;;;;;;;5037968;28;20368;-69
2024/02/21 06:03:05;;;;;;;7.95;4.35;;;3.20;99.90;;;;;;5039197;28;20329;-69
2024/02/21 06:05:31;;;;;;;13.60;4.78;;;;;;;;;;5039436;28;20026;-67
2024/02/21 06:07:57;;;;;;;11.80;6.72;;;3.50;99.90;;;;;;5039348;28;20044;-64
2024/02/21 06:10:23;;;;;;;15.68;5.88;;;;;;;;;;5038843;28;20380;-66
2024/02/21 06:12:50;;;;;;;7.18;5.15;;;3.30;99.90;;;;;;5039200;28;20031;-69
2024/02/21 06:15:16;;;;;;;12.98;6.55;;;;;;;;;;5039086;28;20040;-67
2024/02/21 06:17:43;;;;;;;34.28;14.23;;;3.40;99.90;;;;;;5039188;28;20025;-66
2024/02/21 06:20:09;;;;;;;34.33;13.38;;;;;;;;;;5039403;28;20037;-66
2024/02/21 06:22:35;;;;;;;28.40;11.43;;;3.20;99.90;;;;;;5039055;28;20019;-66
2024/02/21 06:25:02;;;;;;;29.23;11.35;;;;;;;;;;5039240;28;20013;-66
2024/02/21 06:27:28;;;;;;;25.10;10.27;;;3.50;99.90;;;;;;5039325;28;20088;-67
2024/02/21 06:29:54;;;;;;;21.15;8.85;;;;;;;;;;5039473;28;20195;-66
2024/02/21 06:32:20;;;;;;;16.40;9.32;;;3.50;99.90;;;;;;5039285;28;20044;-67
2024/02/21 06:34:46;;;;;;;17.92;7.68;;;;;;;;;;5038925;28;20053;-67
2024/02/21 06:37:12;;;;;;;18.15;9.98;;;;;;;;;;5039160;28;20071;-66
2024/02/21 06:39:40;;;;;;;19.80;9.55;;;;;;;;;;5039171;28;20037;-69
2024/02/21 06:42:06;;;;;;;18.00;9.85;;;;;;;;;;5040522;28;20017;-67
2024/02/21 06:44:36;;;;;;;22.63;10.00;;;;;;;;;;5042426;28;20344;-67
2024/02/21 06:47:02;;;;;;;21.30;9.57;;;;;;;;;;5042669;28;20022;-67
2024/02/21 06:49:28;;;;;;;19.33;8.10;;;;;;;;;;5042617;28;20087;-69
2024/02/21 06:51:54;;;;;;;16.77;9.00;;;;;;;;;;5042413;28;20315;-68
2024/02/21 06:54:20;;;;;;;14.18;8.48;;;;;;;;;;5042214;28;20041;-69
2024/02/21 06:56:46;;;;;;;15.70;9.63;;;3.80;99.90;;;;;;5028490;28;20018;-67
2024/02/21 06:59:15;;;;;;;29.05;14.75;;;;;;;;;;5022819;28;20060;-66
2024/02/21 07:01:45;;;;;;;33.70;14.68;;;4.00;99.90;;;;;;5022126;28;20026;-66
2024/02/21 07:04:11;;;;;;;23.75;11.93;;;;;;;;;;5022133;28;20026;-67
2024/02/21 07:06:37;;;;;;;21.65;9.85;;;;;;;;;;5022617;28;20010;-66
2024/02/21 07:09:03;;;;;;;24.58;10.00;;;;;;;;;;5022497;28;20397;-66
2024/02/21 07:11:29;;;;;;;17.05;9.15;;;;;;;;;;5022320;28;20030;-66
2024/02/21 07:13:55;;;;;;;19.95;9.18;;;;;;;;;;5022380;28;20076;-66
2024/02/21 07:16:21;;;;;;;15.50;7.45;;;4.50;99.90;;;;;;5022454;28;20034;-66
2024/02/21 07:18:47;;;;;;;20.77;7.88;;;;;;;;;;5022455;28;20320;-66
2024/02/21 07:21:14;;;;;;;16.20;7.50;;;;;;;;;;5022066;28;20013;-66
2024/02/21 07:23:44;;;;;;;16.88;6.95;;;4.90;99.90;;;;;;5022030;28;20089;-66
2024/02/21 07:26:10;;;;;;;13.02;6.18;;;;;;;;;;5022195;28;20026;-67
2024/02/21 07:28:36;;;;;;;12.98;6.32;;;;;;;;;;5021931;28;20317;-67
2024/02/21 07:31:02;;;;;;;14.63;6.43;;;;;;;;;;5022425;28;20060;-67
2024/02/21 07:33:30;;;;;;;10.35;6.57;;;;;;;;;;5021837;28;20116;-66
2024/02/21 07:35:56;;;;;;;13.23;6.75;;;;;;;;;;5021633;28;20207;-67
2024/02/21 07:38:22;;;;;;;15.20;6.55;;;5.70;99.90;;;;;;5021850;28;20044;-69
2024/02/21 07:40:48;;;;;;;8.57;5.30;;;5.80;99.90;;;;;;5021565;28;20305;-64
2024/02/21 07:43:13;;;;;;;15.38;5.97;;;5.90;99.90;;;;;;5039541;28;20024;-65
2024/02/21 07:45:40;;;;;;;13.32;5.68;;;;;;;;;;5040332;28;20033;-65
2024/02/21 07:48:06;;;;;;;10.60;4.47;;;;;;;;;;5037598;28;20018;-64
2024/02/21 07:50:35;;;;;;;11.35;5.20;;;6.50;99.90;;;;;;5040854;28;20068;-64
2024/02/21 07:53:00;;;;;;;10.80;5.07;;;6.90;99.90;;;;;;5040240;28;20033;-64
2024/02/21 07:55:26;;;;;;;15.35;4.75;;;;;;;;;;5041431;28;20292;-64
2024/02/21 07:57:52;;;;;;;7.03;4.75;;;7.40;99.90;;;;;;5041257;28;20013;-66
2024/02/21 08:00:22;;;;;;;9.98;4.68;;;7.40;99.90;;;;;;5034660;28;20036;-66
2024/02/21 08:02:50;;;;;;;8.52;3.90;;;7.50;99.90;;;;;;5041611;28;20014;-63
2024/02/21 08:05:16;;;;;;;6.55;3.80;;;;;;;;;;5035364;28;20034;-66
2024/02/21 08:07:42;;;;;;;8.25;4.50;;;;;;;;;;5022524;28;20033;-65
2024/02/21 08:10:08;;;;;;;7.95;4.43;;;8.00;99.90;;;;;;5021603;28;20022;-66
2024/02/21 08:12:34;;;;;;;12.18;4.72;;;8.30;99.90;;;;;;5021628;28;20020;-64
2024/02/21 08:15:00;;;;;;;16.23;6.57;;;;;;;;;;5025615;28;20095;-64
2024/02/21 08:17:26;;;;;;;6.50;3.53;;;8.70;99.90;;;;;;5041314;28;20031;-63
2024/02/21 08:19:52;;;;;;;11.05;4.00;;;8.90;99.90;;;;;;5040897;28;20345;-64
2024/02/21 08:22:17;;;;;;;11.48;4.05;;;8.90;99.90;;;;;;5041062;28;20092;-65
2024/02/21 08:24:43;;;;;;;8.88;3.42;;;;;;;;;;5040787;28;20092;-66
2024/02/21 08:27:09;;;;;;;8.65;3.13;;;;;;;;;;5040689;28;20017;-64
2024/02/21 08:29:35;;;;;;;10.95;2.97;;;9.30;99.90;;;;;;5040529;28;20575;-64
2024/02/21 08:32:01;;;;;;;8.32;3.65;;;;;;;;;;5040838;28;20089;-65
2024/02/21 08:34:29;;;;;;;9.50;3.40;;;;;;;;;;5040354;28;20061;-65
2024/02/21 08:36:55;;;;;;;7.68;2.97;;;9.40;99.90;;;;;;5039554;28;20123;-64
2024/02/21 08:39:21;;;;;;;8.40;2.72;;;;;;;;;;5040432;28;20029;-64
2024/02/21 08:41:47;;;;;;;11.02;4.90;;;;;;;;;;5040491;28;20019;-65
2024/02/21 08:44:13;;;;;;;9.40;4.15;;;;;;;;;;5040687;28;20029;-64
2024/02/21 08:46:40;;;;;;;6.38;3.42;;;9.30;99.90;;;;;;5040585;28;20013;-64
2024/02/21 08:49:06;;;;;;;8.73;3.80;;;9.30;98.80;;;;;;5039258;28;20033;-65
2024/02/21 08:51:31;;;;;;;10.60;4.32;;;9.30;99.90;;;;;;5040160;28;20032;-66
2024/02/21 08:53:58;;;;;;;8.70;3.38;;;9.50;97.50;;;;;;5040309;28;20041;-65
2024/02/21 08:56:24;;;;;;;10.82;4.03;;;10.00;99.90;;;;;;5040308;28;20017;-65
2024/02/21 08:58:50;;;;;;;9.30;3.10;;;9.80;99.90;;;;;;5040444;28;20071;-68
2024/02/21 09:01:15;;;;;;;9.50;3.58;;;10.00;99.90;;;;;;5040193;28;20044;-65
2024/02/21 09:03:41;;;;;;;8.30;2.97;;;;;;;;;;5040527;28;20029;-68
2024/02/21 09:06:08;;;;;;;10.18;2.85;;;9.80;94.60;;;;;;5041729;28;20025;-67
2024/02/21 09:08:34;;;;;;;6.43;3.30;;;;;;;;;;5041653;28;20033;-65
2024/02/21 09:11:01;;;;;;;11.57;3.45;;;9.60;99.90;;;;;;5041872;28;20017;-68
2024/02/21 09:13:27;;;;;;;9.80;3.03;;;;;;;;;;5041953;28;20045;-64
2024/02/21 09:15:53;;;;;;;5.43;3.00;;;;;;;;;;5042175;28;20096;-64
2024/02/21 09:18:19;;;;;;;7.78;2.80;;;;;;;;;;5040814;28;20351;-66
2024/02/21 09:20:45;;;;;;;11.55;4.20;;;9.30;96.30;;;;;;5042071;28;20040;-65
2024/02/21 09:23:11;;;;;;;10.77;3.08;;;;;;;;;;5042316;28;20310;-68
2024/02/21 09:25:37;;;;;;;8.90;2.97;;;;;;;;;;5042597;28;20031;-64
2024/02/21 09:28:03;;;;;;;6.38;3.20;;;;;;;;;;5041917;28;20025;-71
2024/02/21 09:30:30;;;;;;;6.38;2.92;;;10.20;91.60;;;;;;5042099;28;20017;-65
2024/02/21 09:32:58;;;;;;;8.35;3.20;;;10.00;96.60;;;;;;5041333;28;20359;-73
2024/02/21 09:35:26;;;;;;;10.88;3.00;;;;;;;;;;5041246;28;20317;-68
2024/02/21 09:37:52;;;;;;;8.88;2.90;;;10.40;85.10;;;;;;5039665;28;20033;-65
2024/02/21 09:40:18;;;;;;;7.40;3.05;;;10.40;94.10;;;;;;5040014;28;20139;-65
2024/02/21 09:42:46;;;;;;;11.48;2.88;;;10.70;88.80;;;;;;5035515;28;20637;-65
2024/02/21 09:45:23;;;;;;;6.03;2.92;;;10.40;81.50;;;;;;5036574;28;20021;-65
2024/02/21 09:48:17;;;;;;;10.63;3.38;;;10.20;92.70;;;;;;5039654;28;20122;-66
2024/02/21 09:50:43;;;;;;;6.22;2.50;;;10.30;79.90;;;;;;5039711;28;20088;-64
2024/02/21 09:53:13;;;;;;;11.05;3.30;;;10.40;92.20;;;;;;5039524;28;20041;-66
2024/02/21 09:55:41;;;;;;;7.93;3.38;;;10.60;80.90;;;;;;5039750;28;20026;-67
2024/02/21 09:58:08;;;;;;;13.27;3.38;;;10.90;92.40;;;;;;5039361;28;20030;-64
2024/02/21 10:00:37;;;;;;;9.15;2.97;;;10.90;79.00;;;;;;5039310;28;20112;-69
2024/02/21 10:03:07;;;;;;;13.50;3.58;;;11.10;77.80;;;;;;5038963;28;20326;-64
2024/02/21 10:05:35;;;;;;;12.77;4.05;;;11.10;75.40;;;;;;5039304;28;20037;-65
2024/02/21 10:08:01;;;;;;;8.30;3.15;;;11.10;77.60;;;;;;5038952;28;20056;-65
2024/02/21 10:10:29;;;;;;;7.68;3.33;;;11.60;88.40;;;;;;5039183;28;20034;-64
2024/02/21 10:12:55;;;;;;;7.63;3.10;;;11.90;78.60;;;;;;5038996;28;20052;-66
2024/02/21 10:15:24;;;;;;;6.47;3.33;;;12.00;73.70;;;;;;5039410;28;20029;-65
2024/02/21 10:17:58;;;;;;;6.95;2.88;;;12.10;83.10;;;;;;5042559;28;20187;-66
2024/02/21 10:20:24;;;;;;;9.82;3.03;;;11.90;77.10;;;;;;5042776;28;20021;-65
2024/02/21 10:23:07;;;;;;;13.55;3.28;;;11.90;70.20;;;;;;5042678;28;20031;-66
2024/02/21 10:25:33;;;;;;;11.10;3.92;;;;;;;;;;5042518;28;20108;-65
2024/02/21 10:27:59;;;;;;;11.20;3.38;;;12.20;82.90;;;;;;5042506;28;20033;-65
2024/02/21 10:30:25;;;;;;;8.90;3.38;;;;;;;;;;5042599;28;20249;-65
2024/02/21 10:32:54;;;;;;;7.30;3.40;;;12.60;73.40;;;;;;5042343;28;20232;-65
2024/02/21 10:35:27;;;;;;;9.32;3.05;;;12.50;67.90;;;;;;5042565;28;20041;-66
2024/02/21 10:37:55;;;;;;;13.93;3.88;;;12.40;70.50;;;;;;5042599;28;20026;-65
2024/02/21 10:40:32;;;;;;;7.95;3.28;;;12.40;67.80;;;;;;5042184;28;20269;-67
2024/02/21 10:43:00;;;;;;;11.68;3.30;;;12.50;67.80;;;;;;5042341;28;20578;-65
2024/02/21 10:45:29;;;;;;;6.78;3.72;;;12.50;67.90;;;;;;5042844;28;20036;-64
2024/02/21 10:47:58;;;;;;;10.77;3.50;;;12.30;81.90;;;;;;5043776;28;20017;-65
2024/02/21 10:50:31;;;;;;;8.95;2.55;;;12.20;67.20;;;;;;5043475;28;20030;-65
2024/02/21 10:53:14;;;;;;;8.07;3.85;;;12.00;81.90;;;;;;5043715;28;20018;-65
2024/02/21 10:55:50;;;;;;;12.40;3.90;;;12.20;67.60;;;;;;5043504;28;20033;-66
2024/02/21 10:58:18;;;;;;;11.20;4.88;;;12.60;78.70;;;;;;5043679;28;20033;-67
2024/02/21 11:00:44;;;;;;;9.18;3.75;;;;;;;;;;5040130;28;20033;-67
2024/02/21 11:03:10;;;;;;;10.10;3.63;;;;;;;;;;5057620;28;20033;-67
2024/02/21 11:05:36;;;;;;;8.70;3.40;;;13.50;70.10;;;;;;5042121;28;20034;-67
2024/02/21 11:08:05;;;;;;;10.80;3.92;;;13.10;77.30;;;;;;5042387;28;20025;-67
2024/02/21 11:10:31;;;;;;;5.97;3.20;;;;;;;;;;5042418;28;20027;-65
2024/02/21 11:13:08;;;;;;;12.82;3.72;;;13.40;62.90;;;;;;5041854;28;20032;-67
2024/02/21 11:15:34;;;;;;;8.68;3.50;;;;;;;;;;5042267;28;20075;-67
2024/02/21 11:18:00;;;;;;;8.55;2.88;;;;;;;;;;5042100;28;20088;-65
2024/02/21 11:20:34;;;;;;;11.68;3.40;;;13.00;63.30;;;;;;5040454;28;20029;-67
2024/02/21 11:23:00;;;;;;;13.63;4.10;;;13.40;66.00;;;;;;5041450;28;20025;-68
2024/02/21 11:25:26;;;;;;;11.35;3.88;;;;;;;;;;5041627;28;20107;-64
2024/02/21 11:28:00;;;;;;;12.73;4.80;;;13.20;67.40;;;;;;5041054;28;20028;-66
2024/02/21 11:30:34;;;;;;;9.30;3.50;;;13.20;75.70;;;;;;5040329;28;20390;-65
2024/02/21 11:33:06;;;;;;;8.95;3.60;;;13.40;62.60;;;;;;5041313;28;20049;-66
2024/02/21 11:35:35;;;;;;;10.82;3.75;;;13.60;75.70;;;;;;5041524;28;20033;-66
2024/02/21 11:38:14;;;;;;;11.30;4.13;;;13.90;75.10;;;;;;5041520;28;20408;-65
2024/02/21 11:40:41;;;;;;;;;;;14.20;61.70;;;;;;5042229;28;20037;-66
2024/02/21 11:43:07;;;;;;;12.02;3.50;;;15.00;60.90;;;;;;5041766;28;19909;-64
2024/02/21 11:45:33;;;;;;;7.60;3.33;;;15.40;71.70;;;;;;5041378;28;20313;-65
2024/02/21 11:48:00;;;;;;;15.30;4.28;;;15.10;71.00;;;;;;5041802;28;20381;-65
2024/02/21 11:50:26;;;;;;;9.05;3.33;;;15.40;57.80;;;;;;5041623;28;20087;-65
2024/02/21 11:52:55;;;;;;;8.48;3.20;;;15.50;69.10;;;;;;5041555;28;20021;-65
2024/02/21 11:55:22;;;;;;;9.43;3.17;;;15.50;56.10;;;;;;5041544;28;20037;-67
2024/02/21 11:57:50;;;;;;;4.90;2.10;;;15.20;67.50;;;;;;5041494;28;20056;-65
2024/02/21 12:00:17;;;;;;;;;;;15.10;55.70;;;;;;5040633;28;20041;-66
2024/02/21 12:02:46;;;;;;;11.90;2.05;;;14.50;69.00;;;;;;5041022;28;19933;-65
2024/02/21 12:05:12;;;;;;;4.55;1.92;;;14.30;68.00;;;;;;5040821;28;20025;-65
2024/02/21 12:07:41;;;;;;;10.07;2.53;;;14.20;55.20;;;;;;5040867;28;20039;-65
2024/02/21 12:10:10;;;;;;;5.95;2.22;;;14.20;68.60;;;;;;5040997;28;20037;-65
2024/02/21 12:12:37;;;;;;;6.95;2.03;;;13.90;69.00;;;;;;5040090;28;20060;-65
2024/02/21 12:15:04;;;;;;;10.15;2.22;;;13.60;55.80;;;;;;5040545;28;20215;-65
2024/02/21 12:17:37;;;;;;;10.23;2.55;;;13.30;70.00;;;;;;5041113;28;20017;-67
2024/02/21 12:20:09;;;;;;;7.53;2.40;;;13.10;56.50;;;;;;5041401;28;20311;-65
2024/02/21 12:22:38;;;;;;;6.13;2.20;;;12.80;57.10;;;;;;5040294;28;20029;-68
2024/02/21 12:25:26;;;;;;;9.23;2.70;;;12.60;59.40;;;;;;5040977;28;20064;-66
2024/02/21 12:27:52;;;;;;;11.60;2.27;;;;;;;;;;5041010;28;20025;-65
2024/02/21 12:30:19;;;;;;;7.75;2.28;;;12.30;63.60;;;;;;5041184;28;20251;-64
2024/02/21 12:32:45;;;;;;;9.45;2.45;;;12.10;58.30;;;;;;5041675;28;20059;-65
2024/02/21 12:35:11;;;;;;;6.78;2.25;;;;;;;;;;5041480;28;20048;-65
2024/02/21 12:37:40;;;;;;;8.63;2.83;;;12.20;59.30;;;;;;5039918;28;20029;-67
2024/02/21 12:40:07;;;;;;;8.48;2.72;;;12.00;70.30;;;;;;5041142;28;20107;-64
2024/02/21 12:42:34;;;;;;;14.15;3.50;;;12.60;71.50;;;;;;5040032;28;20022;-65
2024/02/21 12:45:00;;;;;;;5.25;2.30;;;12.10;74.20;;;;;;5041593;28;20079;-65
2024/02/21 12:47:26;;;;;;;3.92;1.92;;;12.00;73.60;;;;;;5041234;28;20021;-66
2024/02/21 12:49:52;;;;;;;10.40;2.95;;;12.10;58.70;;;;;;5040673;28;20060;-66
2024/02/21 12:52:19;;;;;;;8.98;2.15;;;;;;;;;;5040305;28;20033;-65
2024/02/21 12:54:45;;;;;;;10.50;2.63;;;;;;;;;;5039775;28;20214;-64
2024/02/21 12:57:11;;;;;;;11.88;2.92;;;12.40;73.20;;;;;;5040176;28;20021;-65
2024/02/21 12:59:37;;;;;;;8.10;3.58;;;;;;;;;;5039968;28;20059;-64
2024/02/21 13:02:04;;;;;;;14.10;3.20;;;;;;;;;;5039824;28;20100;-65
2024/02/21 13:04:31;;;;;;;9.38;3.40;;;;;;;;;;5039713;28;20332;-65
2024/02/21 13:06:56;;;;;;;8.32;2.85;;;12.60;72.90;;;;;;5039747;28;20332;-65
2024/02/21 13:09:22;;;;;;;6.78;2.50;;;12.60;71.00;;;;;;5039765;28;20026;-65
2024/02/21 13:11:48;;;;;;;9.52;2.55;;;;;;;;;;5039768;28;20050;-64
2024/02/21 13:14:14;;;;;;;9.07;3.30;;;;;;;;;;5039542;28;20033;-65
2024/02/21 13:16:40;;;;;;;22.52;4.00;;;;;;;;;;5039595;28;20036;-64
2024/02/21 13:19:08;;;;;;;8.93;2.53;;;13.80;59.20;;;;;;5039555;28;20217;-66
2024/02/21 13:21:34;;;;;;;10.85;2.95;;;14.00;61.10;;;;;;5039677;28;20100;-65
2024/02/21 13:24:00;;;;;;;10.25;3.08;;;13.70;67.90;;;;;;5039647;28;20313;-65